Torredembarra, Spain
Current Conditions -  °F | °C
As of 5:30 PM on Saturday 22 Nov 2014 (Local Time) from LERS Reporting Station
Few Clouds Few Clouds  
Wind Chill: 64°   Ceiling: Unl
Heat Index: 64°   Visibility: 6mi
Dew Point: 61°   Wind: 0mph
Humidity: 88%   Direction: NA
Pressure: 30"   Gusts: NA
Location:  41.15°N, 1.4°E
Report Text: LERS 221630Z 00000KT 9999 FEW050 18/16 Q1016
Loading
Personal Weather Stations






























Interactive Weather Map New forecast layout! Learn more

10-Day Weather Forecast

Advertisements
Track Severe Weather on mobile